sensor_id;sensor_type;location;lat;lon;timestamp;pressure;altitude;pressure_sealevel;temperature;humidity
18678;BME280;9469;51.114;13.914;2023-01-26T00:01:06;99465.19;;;2.20;100.00
18678;BME280;9469;51.114;13.914;2023-01-26T00:06:13;99456.63;;;2.25;100.00
18678;BME280;9469;51.114;13.914;2023-01-26T00:11:20;99464.38;;;2.43;100.00
18678;BME280;9469;51.114;13.914;2023-01-26T00:16:34;99454.91;;;2.18;100.00
18678;BME280;9469;51.114;13.914;2023-01-26T00:21:39;99453.97;;;2.01;100.00
18678;BME280;9469;51.114;13.914;2023-01-26T00:26:48;99448.16;;;2.11;100.00
18678;BME280;9469;51.114;13.914;2023-01-26T00:31:58;99447.72;;;2.37;100.00
18678;BME280;9469;51.114;13.914;2023-01-26T00:37:03;99438.81;;;1.92;100.00
18678;BME280;9469;51.114;13.914;2023-01-26T00:42:11;99440.16;;;1.83;100.00
18678;BME280;9469;51.114;13.914;2023-01-26T00:47:20;99433.34;;;1.52;100.00
18678;BME280;9469;51.114;13.914;2023-01-26T00:52:25;99431.56;;;1.64;100.00
18678;BME280;9469;51.114;13.914;2023-01-26T00:57:31;99439.66;;;1.74;100.00
18678;BME280;9469;51.114;13.914;2023-01-26T01:02:42;99427.91;;;1.65;100.00
18678;BME280;9469;51.114;13.914;2023-01-26T01:07:48;99421.38;;;1.56;100.00
18678;BME280;9469;51.114;13.914;2023-01-26T01:12:53;99426.03;;;1.54;100.00
18678;BME280;9469;51.114;13.914;2023-01-26T01:18:01;99431.63;;;1.46;100.00
18678;BME280;9469;51.114;13.914;2023-01-26T01:23:06;99421.91;;;1.88;100.00
18678;BME280;9469;51.114;13.914;2023-01-26T01:28:11;99417.16;;;2.08;100.00
18678;BME280;9469;51.114;13.914;2023-01-26T01:33:21;99421.88;;;1.65;100.00
18678;BME280;9469;51.114;13.914;2023-01-26T01:38:26;99409.88;;;1.57;100.00
18678;BME280;9469;51.114;13.914;2023-01-26T01:43:32;99408.56;;;1.36;100.00
18678;BME280;9469;51.114;13.914;2023-01-26T01:48:46;99401.06;;;1.52;100.00
18678;BME280;9469;51.114;13.914;2023-01-26T01:53:55;99402.88;;;1.81;100.00
18678;BME280;9469;51.114;13.914;2023-01-26T01:59:03;99391.34;;;2.05;100.00
18678;BME280;9469;51.114;13.914;2023-01-26T02:04:13;99381.06;;;1.69;100.00
18678;BME280;9469;51.114;13.914;2023-01-26T02:09:22;99386.22;;;1.98;100.00
18678;BME280;9469;51.114;13.914;2023-01-26T02:14:41;99364.53;;;1.80;100.00
18678;BME280;9469;51.114;13.914;2023-01-26T02:19:57;99359.50;;;1.67;100.00
18678;BME280;9469;51.114;13.914;2023-01-26T02:25:11;99348.88;;;1.62;100.00
18678;BME280;9469;51.114;13.914;2023-01-26T02:30:24;99346.41;;;1.78;100.00
18678;BME280;9469;51.114;13.914;2023-01-26T02:35:30;99330.88;;;2.00;100.00
18678;BME280;9469;51.114;13.914;2023-01-26T02:40:41;99325.75;;;2.16;100.00
18678;BME280;9469;51.114;13.914;2023-01-26T02:45:52;99318.63;;;2.29;100.00
18678;BME280;9469;51.114;13.914;2023-01-26T02:50:58;99310.69;;;2.12;100.00
18678;BME280;9469;51.114;13.914;2023-01-26T02:56:03;99316.81;;;2.17;100.00
18678;BME280;9469;51.114;13.914;2023-01-26T03:01:11;99307.94;;;2.18;100.00
18678;BME280;9469;51.114;13.914;2023-01-26T03:06:21;99314.81;;;1.96;100.00
18678;BME280;9469;51.114;13.914;2023-01-26T03:11:26;99307.72;;;1.62;100.00
18678;BME280;9469;51.114;13.914;2023-01-26T03:16:45;99308.16;;;1.36;100.00
18678;BME280;9469;51.114;13.914;2023-01-26T03:21:50;99304.31;;;1.62;100.00
18678;BME280;9469;51.114;13.914;2023-01-26T03:27:19;99301.00;;;1.78;100.00
18678;BME280;9469;51.114;13.914;2023-01-26T03:32:38;99303.50;;;1.84;100.00
18678;BME280;9469;51.114;13.914;2023-01-26T03:37:47;99292.69;;;1.69;100.00
18678;BME280;9469;51.114;13.914;2023-01-26T03:43:14;99289.69;;;1.54;100.00
18678;BME280;9469;51.114;13.914;2023-01-26T03:48:35;99285.84;;;1.68;100.00
18678;BME280;9469;51.114;13.914;2023-01-26T03:53:52;99274.41;;;1.74;100.00
18678;BME280;9469;51.114;13.914;2023-01-26T03:59:10;99280.47;;;1.98;100.00
18678;BME280;9469;51.114;13.914;2023-01-26T04:04:21;99272.94;;;1.43;100.00
18678;BME280;9469;51.114;13.914;2023-01-26T04:09:39;99278.53;;;1.35;100.00
18678;BME280;9469;51.114;13.914;2023-01-26T04:14:44;99263.28;;;1.56;100.00
18678;BME280;9469;51.114;13.914;2023-01-26T04:20:06;99260.16;;;1.93;100.00
18678;BME280;9469;51.114;13.914;2023-01-26T04:25:24;99262.47;;;1.90;100.00
18678;BME280;9469;51.114;13.914;2023-01-26T04:30:31;99257.75;;;2.03;100.00
18678;BME280;9469;51.114;13.914;2023-01-26T04:35:41;99261.69;;;2.17;100.00
18678;BME280;9469;51.114;13.914;2023-01-26T04:40:52;99252.13;;;2.11;100.00
18678;BME280;9469;51.114;13.914;2023-01-26T04:46:01;99249.28;;;2.13;100.00
18678;BME280;9469;51.114;13.914;2023-01-26T04:51:12;99244.16;;;2.06;100.00
18678;BME280;9469;51.114;13.914;2023-01-26T04:56:22;99240.03;;;2.10;100.00
18678;BME280;9469;51.114;13.914;2023-01-26T05:01:27;99243.50;;;1.88;100.00
18678;BME280;9469;51.114;13.914;2023-01-26T05:06:35;99247.75;;;1.66;100.00
18678;BME280;9469;51.114;13.914;2023-01-26T05:11:43;99246.84;;;1.72;100.00
18678;BME280;9469;51.114;13.914;2023-01-26T05:16:53;99247.16;;;1.98;100.00
18678;BME280;9469;51.114;13.914;2023-01-26T05:22:38;99248.94;;;2.09;100.00
18678;BME280;9469;51.114;13.914;2023-01-26T05:28:03;99248.72;;;1.99;100.00
18678;BME280;9469;51.114;13.914;2023-01-26T05:33:09;99252.06;;;1.83;100.00
18678;BME280;9469;51.114;13.914;2023-01-26T05:38:19;99257.09;;;1.50;100.00
18678;BME280;9469;51.114;13.914;2023-01-26T05:43:25;99255.16;;;1.80;100.00
18678;BME280;9469;51.114;13.914;2023-01-26T05:48:50;99247.75;;;1.77;100.00
18678;BME280;9469;51.114;13.914;2023-01-26T05:54:02;99245.34;;;1.87;100.00
18678;BME280;9469;51.114;13.914;2023-01-26T05:59:08;99244.28;;;2.00;100.00
18678;BME280;9469;51.114;13.914;2023-01-26T06:04:14;99245.66;;;2.02;100.00
18678;BME280;9469;51.114;13.914;2023-01-26T06:09:30;99248.66;;;1.71;100.00
18678;BME280;9469;51.114;13.914;2023-01-26T06:14:58;99250.47;;;1.82;100.00
18678;BME280;9469;51.114;13.914;2023-01-26T06:20:11;99257.78;;;1.57;100.00
18678;BME280;9469;51.114;13.914;2023-01-26T06:25:29;99252.22;;;1.54;100.00
18678;BME280;9469;51.114;13.914;2023-01-26T06:30:36;99267.25;;;1.58;100.00
18678;BME280;9469;51.114;13.914;2023-01-26T06:35:45;99257.97;;;1.90;100.00
18678;BME280;9469;51.114;13.914;2023-01-26T06:40:53;99266.00;;;1.61;100.00
18678;BME280;9469;51.114;13.914;2023-01-26T06:46:00;99259.50;;;1.63;100.00
18678;BME280;9469;51.114;13.914;2023-01-26T06:51:39;99251.88;;;1.50;100.00
18678;BME280;9469;51.114;13.914;2023-01-26T06:56:49;99246.06;;;1.71;100.00
18678;BME280;9469;51.114;13.914;2023-01-26T07:02:16;99248.91;;;1.47;100.00
18678;BME280;9469;51.114;13.914;2023-01-26T07:07:22;99256.31;;;1.73;100.00
18678;BME280;9469;51.114;13.914;2023-01-26T07:12:44;99254.03;;;1.76;100.00
18678;BME280;9469;51.114;13.914;2023-01-26T07:17:52;99257.78;;;1.45;100.00
18678;BME280;9469;51.114;13.914;2023-01-26T07:22:59;99257.31;;;1.83;100.00
18678;BME280;9469;51.114;13.914;2023-01-26T07:28:08;99250.63;;;1.64;100.00
18678;BME280;9469;51.114;13.914;2023-01-26T07:33:18;99245.38;;;1.53;100.00
18678;BME280;9469;51.114;13.914;2023-01-26T07:38:25;99253.44;;;1.74;100.00
18678;BME280;9469;51.114;13.914;2023-01-26T07:43:35;99248.56;;;1.55;100.00
18678;BME280;9469;51.114;13.914;2023-01-26T07:48:43;99246.38;;;1.63;100.00
18678;BME280;9469;51.114;13.914;2023-01-26T07:53:49;99250.72;;;1.58;100.00
18678;BME280;9469;51.114;13.914;2023-01-26T07:58:59;99253.47;;;1.63;100.00
18678;BME280;9469;51.114;13.914;2023-01-26T08:04:08;99256.22;;;1.44;100.00
18678;BME280;9469;51.114;13.914;2023-01-26T08:09:20;99248.28;;;1.10;100.00
18678;BME280;9469;51.114;13.914;2023-01-26T08:14:28;99251.16;;;1.31;100.00
18678;BME280;9469;51.114;13.914;2023-01-26T08:19:48;99236.59;;;1.24;100.00
18678;BME280;9469;51.114;13.914;2023-01-26T08:24:56;99243.00;;;0.87;100.00
18678;BME280;9469;51.114;13.914;2023-01-26T08:30:09;99253.19;;;1.18;100.00
18678;BME280;9469;51.114;13.914;2023-01-26T08:35:15;99242.28;;;1.21;100.00
18678;BME280;9469;51.114;13.914;2023-01-26T08:40:26;99242.50;;;1.66;100.00
18678;BME280;9469;51.114;13.914;2023-01-26T08:45:35;99239.06;;;1.77;100.00
18678;BME280;9469;51.114;13.914;2023-01-26T08:50:42;99238.16;;;1.94;100.00
18678;BME280;9469;51.114;13.914;2023-01-26T08:55:48;99248.78;;;1.65;100.00
18678;BME280;9469;51.114;13.914;2023-01-26T09:00:56;99238.88;;;1.55;100.00
18678;BME280;9469;51.114;13.914;2023-01-26T09:06:08;99246.81;;;1.83;100.00
18678;BME280;9469;51.114;13.914;2023-01-26T09:11:16;99246.16;;;1.76;100.00
18678;BME280;9469;51.114;13.914;2023-01-26T09:16:25;99244.81;;;1.62;100.00
18678;BME280;9469;51.114;13.914;2023-01-26T09:21:32;99259.59;;;1.68;100.00
18678;BME280;9469;51.114;13.914;2023-01-26T09:26:40;99260.28;;;1.64;100.00
18678;BME280;9469;51.114;13.914;2023-01-26T09:31:58;99265.28;;;1.88;100.00
18678;BME280;9469;51.114;13.914;2023-01-26T09:37:10;99266.78;;;1.84;100.00
18678;BME280;9469;51.114;13.914;2023-01-26T09:42:31;99272.03;;;1.50;100.00
18678;BME280;9469;51.114;13.914;2023-01-26T09:47:51;99257.44;;;1.77;100.00
18678;BME280;9469;51.114;13.914;2023-01-26T09:53:01;99266.91;;;1.66;100.00
18678;BME280;9469;51.114;13.914;2023-01-26T09:58:13;99269.41;;;1.73;100.00
18678;BME280;9469;51.114;13.914;2023-01-26T10:03:25;99270.22;;;1.85;100.00
18678;BME280;9469;51.114;13.914;2023-01-26T10:09:14;99260.84;;;1.77;100.00
18678;BME280;9469;51.114;13.914;2023-01-26T10:14:35;99255.03;;;1.98;100.00
18678;BME280;9469;51.114;13.914;2023-01-26T10:19:48;99263.38;;;1.72;100.00
18678;BME280;9469;51.114;13.914;2023-01-26T10:24:56;99259.72;;;1.73;100.00
18678;BME280;9469;51.114;13.914;2023-01-26T10:30:01;99253.22;;;1.87;100.00
18678;BME280;9469;51.114;13.914;2023-01-26T10:35:14;99253.69;;;1.61;100.00
18678;BME280;9469;51.114;13.914;2023-01-26T10:40:21;99247.06;;;1.47;100.00
18678;BME280;9469;51.114;13.914;2023-01-26T10:45:28;99244.00;;;1.62;100.00
18678;BME280;9469;51.114;13.914;2023-01-26T10:50:38;99232.44;;;1.86;100.00
18678;BME280;9469;51.114;13.914;2023-01-26T10:55:58;99232.03;;;1.54;100.00
18678;BME280;9469;51.114;13.914;2023-01-26T11:01:09;99225.31;;;1.58;100.00
18678;BME280;9469;51.114;13.914;2023-01-26T11:06:18;99237.13;;;1.84;100.00
18678;BME280;9469;51.114;13.914;2023-01-26T11:11:31;99229.38;;;1.66;100.00
18678;BME280;9469;51.114;13.914;2023-01-26T11:16:37;99230.88;;;1.73;100.00
18678;BME280;9469;51.114;13.914;2023-01-26T11:21:49;99233.06;;;1.53;100.00
18678;BME280;9469;51.114;13.914;2023-01-26T11:27:21;99216.72;;;1.74;100.00
18678;BME280;9469;51.114;13.914;2023-01-26T11:32:36;99212.53;;;1.50;100.00
18678;BME280;9469;51.114;13.914;2023-01-26T11:37:56;99209.19;;;1.89;100.00
18678;BME280;9469;51.114;13.914;2023-01-26T11:43:25;99202.03;;;1.50;100.00
18678;BME280;9469;51.114;13.914;2023-01-26T11:48:43;99192.81;;;1.36;100.00
18678;BME280;9469;51.114;13.914;2023-01-26T11:54:14;99192.28;;;1.11;100.00
18678;BME280;9469;51.114;13.914;2023-01-26T11:59:28;99191.00;;;1.13;100.00
18678;BME280;9469;51.114;13.914;2023-01-26T12:04:39;99191.47;;;1.22;100.00
18678;BME280;9469;51.114;13.914;2023-01-26T12:09:54;99168.44;;;1.24;100.00
18678;BME280;9469;51.114;13.914;2023-01-26T12:15:04;99166.50;;;0.96;100.00
18678;BME280;9469;51.114;13.914;2023-01-26T12:20:23;99157.28;;;1.17;100.00
18678;BME280;9469;51.114;13.914;2023-01-26T12:25:35;99155.28;;;1.70;100.00
18678;BME280;9469;51.114;13.914;2023-01-26T12:30:51;99148.38;;;1.41;100.00
18678;BME280;9469;51.114;13.914;2023-01-26T12:41:46;99157.94;;;0.89;100.00
18678;BME280;9469;51.114;13.914;2023-01-26T12:46:58;99151.34;;;1.21;100.00
18678;BME280;9469;51.114;13.914;2023-01-26T12:52:14;99144.25;;;1.45;100.00
18678;BME280;9469;51.114;13.914;2023-01-26T12:57:32;99123.75;;;1.42;100.00
18678;BME280;9469;51.114;13.914;2023-01-26T13:02:44;99128.44;;;1.28;100.00
18678;BME280;9469;51.114;13.914;2023-01-26T13:07:52;99120.72;;;1.22;100.00
18678;BME280;9469;51.114;13.914;2023-01-26T13:13:27;99126.09;;;1.04;100.00
18678;BME280;9469;51.114;13.914;2023-01-26T13:18:48;99121.53;;;0.99;100.00
18678;BME280;9469;51.114;13.914;2023-01-26T13:24:43;99117.88;;;1.12;100.00
18678;BME280;9469;51.114;13.914;2023-01-26T13:29:57;99123.63;;;1.49;100.00
18678;BME280;9469;51.114;13.914;2023-01-26T13:35:09;99115.34;;;1.17;100.00
18678;BME280;9469;51.114;13.914;2023-01-26T13:40:20;99129.47;;;1.16;100.00
18678;BME280;9469;51.114;13.914;2023-01-26T13:45:33;99127.31;;;1.24;100.00
18678;BME280;9469;51.114;13.914;2023-01-26T13:50:47;99127.19;;;0.85;100.00
18678;BME280;9469;51.114;13.914;2023-01-26T13:55:57;99120.78;;;1.50;100.00
18678;BME280;9469;51.114;13.914;2023-01-26T14:01:14;99115.09;;;1.30;100.00
18678;BME280;9469;51.114;13.914;2023-01-26T14:06:20;99120.16;;;1.20;100.00
18678;BME280;9469;51.114;13.914;2023-01-26T14:11:28;99123.78;;;1.19;100.00
18678;BME280;9469;51.114;13.914;2023-01-26T14:16:40;99117.75;;;0.84;100.00
18678;BME280;9469;51.114;13.914;2023-01-26T14:21:47;99119.78;;;1.28;100.00
18678;BME280;9469;51.114;13.914;2023-01-26T14:26:56;99126.75;;;0.88;100.00
18678;BME280;9469;51.114;13.914;2023-01-26T14:32:13;99120.38;;;0.84;100.00
18678;BME280;9469;51.114;13.914;2023-01-26T14:37:21;99129.25;;;0.83;100.00
18678;BME280;9469;51.114;13.914;2023-01-26T14:42:27;99133.91;;;0.81;100.00
18678;BME280;9469;51.114;13.914;2023-01-26T14:47:37;99130.69;;;0.55;100.00
18678;BME280;9469;51.114;13.914;2023-01-26T14:52:45;99130.19;;;0.88;100.00
18678;BME280;9469;51.114;13.914;2023-01-26T14:57:52;99132.44;;;1.31;100.00
18678;BME280;9469;51.114;13.914;2023-01-26T15:03:10;99139.97;;;0.93;100.00
18678;BME280;9469;51.114;13.914;2023-01-26T15:08:21;99136.41;;;0.64;100.00
18678;BME280;9469;51.114;13.914;2023-01-26T15:13:32;99144.75;;;1.19;100.00
18678;BME280;9469;51.114;13.914;2023-01-26T15:18:55;99144.59;;;0.56;100.00
18678;BME280;9469;51.114;13.914;2023-01-26T15:24:02;99151.72;;;1.02;100.00
18678;BME280;9469;51.114;13.914;2023-01-26T15:29:17;99152.00;;;0.70;100.00
18678;BME280;9469;51.114;13.914;2023-01-26T15:34:32;99156.13;;;0.90;100.00
18678;BME280;9469;51.114;13.914;2023-01-26T15:39:38;99158.41;;;1.21;100.00
18678;BME280;9469;51.114;13.914;2023-01-26T15:44:46;99155.47;;;1.17;100.00
18678;BME280;9469;51.114;13.914;2023-01-26T15:49:55;99139.16;;;0.81;100.00
18678;BME280;9469;51.114;13.914;2023-01-26T15:55:00;99145.28;;;0.63;100.00
18678;BME280;9469;51.114;13.914;2023-01-26T16:00:11;99148.69;;;0.52;100.00
18678;BME280;9469;51.114;13.914;2023-01-26T16:05:23;99158.41;;;0.98;100.00
18678;BME280;9469;51.114;13.914;2023-01-26T16:10:30;99158.13;;;0.64;100.00
18678;BME280;9469;51.114;13.914;2023-01-26T16:15:38;99165.22;;;0.34;100.00
18678;BME280;9469;51.114;13.914;2023-01-26T16:20:51;99169.06;;;0.32;100.00
18678;BME280;9469;51.114;13.914;2023-01-26T16:25:58;99165.19;;;0.23;100.00
18678;BME280;9469;51.114;13.914;2023-01-26T16:31:11;99162.72;;;0.81;100.00
18678;BME280;9469;51.114;13.914;2023-01-26T16:36:22;99158.78;;;0.48;100.00
18678;BME280;9469;51.114;13.914;2023-01-26T16:41:30;99164.13;;;0.12;100.00
18678;BME280;9469;51.114;13.914;2023-01-26T16:46:41;99164.56;;;0.39;100.00
18678;BME280;9469;51.114;13.914;2023-01-26T16:51:54;99172.00;;;0.53;100.00
18678;BME280;9469;51.114;13.914;2023-01-26T16:57:00;99164.97;;;-0.06;100.00
18678;BME280;9469;51.114;13.914;2023-01-26T17:02:18;99166.34;;;-0.03;100.00
18678;BME280;9469;51.114;13.914;2023-01-26T17:07:29;99163.22;;;0.18;100.00
18678;BME280;9469;51.114;13.914;2023-01-26T17:12:34;99181.63;;;-0.18;100.00
18678;BME280;9469;51.114;13.914;2023-01-26T17:17:40;99174.25;;;0.09;100.00
18678;BME280;9469;51.114;13.914;2023-01-26T17:22:50;99180.22;;;-0.03;100.00
18678;BME280;9469;51.114;13.914;2023-01-26T17:27:59;99180.75;;;-0.30;100.00
18678;BME280;9469;51.114;13.914;2023-01-26T17:33:04;99181.25;;;0.26;100.00
18678;BME280;9469;51.114;13.914;2023-01-26T17:38:12;99190.31;;;0.53;100.00
18678;BME280;9469;51.114;13.914;2023-01-26T17:43:20;99187.00;;;0.46;100.00
18678;BME280;9469;51.114;13.914;2023-01-26T17:48:29;99194.88;;;-0.20;100.00
18678;BME280;9469;51.114;13.914;2023-01-26T17:53:43;99194.69;;;-0.18;100.00
18678;BME280;9469;51.114;13.914;2023-01-26T17:58:49;99194.69;;;0.00;100.00
18678;BME280;9469;51.114;13.914;2023-01-26T18:03:55;99196.69;;;-0.02;100.00
18678;BME280;9469;51.114;13.914;2023-01-26T18:09:03;99196.28;;;-0.35;100.00
18678;BME280;9469;51.114;13.914;2023-01-26T18:14:08;99196.41;;;0.06;100.00
18678;BME280;9469;51.114;13.914;2023-01-26T18:19:15;99200.56;;;-0.23;100.00
18678;BME280;9469;51.114;13.914;2023-01-26T18:24:25;99198.47;;;-0.14;100.00
18678;BME280;9469;51.114;13.914;2023-01-26T18:29:31;99218.66;;;-0.21;100.00
18678;BME280;9469;51.114;13.914;2023-01-26T18:34:36;99212.34;;;-0.14;100.00
18678;BME280;9469;51.114;13.914;2023-01-26T18:39:50;99207.38;;;-0.04;100.00
18678;BME280;9469;51.114;13.914;2023-01-26T18:44:56;99204.91;;;-0.17;100.00
18678;BME280;9469;51.114;13.914;2023-01-26T18:50:04;99210.25;;;0.25;100.00
18678;BME280;9469;51.114;13.914;2023-01-26T18:55:12;99222.06;;;-0.03;100.00
18678;BME280;9469;51.114;13.914;2023-01-26T19:00:28;99223.06;;;-0.04;100.00
18678;BME280;9469;51.114;13.914;2023-01-26T19:05:35;99217.97;;;0.20;100.00
18678;BME280;9469;51.114;13.914;2023-01-26T19:10:43;99227.50;;;-0.04;100.00
18678;BME280;9469;51.114;13.914;2023-01-26T19:15:51;99219.22;;;-0.01;100.00
18678;BME280;9469;51.114;13.914;2023-01-26T19:20:56;99214.56;;;0.01;100.00
18678;BME280;9469;51.114;13.914;2023-01-26T19:26:11;99208.69;;;0.35;100.00
18678;BME280;9469;51.114;13.914;2023-01-26T19:31:19;99214.38;;;0.32;100.00
18678;BME280;9469;51.114;13.914;2023-01-26T19:36:26;99210.06;;;0.08;100.00
18678;BME280;9469;51.114;13.914;2023-01-26T19:41:34;99211.81;;;-0.04;100.00
18678;BME280;9469;51.114;13.914;2023-01-26T19:46:41;99212.75;;;-0.17;100.00
18678;BME280;9469;51.114;13.914;2023-01-26T19:51:46;99219.97;;;-0.12;100.00
18678;BME280;9469;51.114;13.914;2023-01-26T19:56:57;99213.19;;;-0.38;100.00
18678;BME280;9469;51.114;13.914;2023-01-26T20:02:02;99212.38;;;-0.38;100.00
18678;BME280;9469;51.114;13.914;2023-01-26T20:07:11;99207.31;;;-0.33;100.00
18678;BME280;9469;51.114;13.914;2023-01-26T20:12:23;99197.72;;;-0.39;100.00
18678;BME280;9469;51.114;13.914;2023-01-26T20:17:29;99202.22;;;-0.46;100.00
18678;BME280;9469;51.114;13.914;2023-01-26T20:22:34;99193.97;;;-0.43;100.00
18678;BME280;9469;51.114;13.914;2023-01-26T20:27:42;99203.53;;;-0.19;100.00
18678;BME280;9469;51.114;13.914;2023-01-26T20:32:52;99182.19;;;-0.34;100.00
18678;BME280;9469;51.114;13.914;2023-01-26T20:37:59;99183.72;;;0.21;100.00
18678;BME280;9469;51.114;13.914;2023-01-26T20:43:07;99187.97;;;0.04;100.00
18678;BME280;9469;51.114;13.914;2023-01-26T20:48:12;99188.59;;;-0.30;100.00
18678;BME280;9469;51.114;13.914;2023-01-26T20:53:17;99187.03;;;-0.38;100.00
18678;BME280;9469;51.114;13.914;2023-01-26T20:58:25;99199.84;;;-0.30;100.00
18678;BME280;9469;51.114;13.914;2023-01-26T21:03:30;99212.69;;;-0.10;100.00
18678;BME280;9469;51.114;13.914;2023-01-26T21:08:37;99190.78;;;0.03;100.00
18678;BME280;9469;51.114;13.914;2023-01-26T21:13:45;99199.19;;;-0.25;100.00
18678;BME280;9469;51.114;13.914;2023-01-26T21:18:51;99194.75;;;0.23;100.00
18678;BME280;9469;51.114;13.914;2023-01-26T21:24:00;99215.50;;;0.25;100.00
18678;BME280;9469;51.114;13.914;2023-01-26T21:29:13;99209.16;;;0.14;100.00
18678;BME280;9469;51.114;13.914;2023-01-26T21:34:19;99213.19;;;-0.02;100.00
18678;BME280;9469;51.114;13.914;2023-01-26T21:39:26;99195.50;;;0.12;100.00
18678;BME280;9469;51.114;13.914;2023-01-26T21:44:35;99216.19;;;0.02;100.00
18678;BME280;9469;51.114;13.914;2023-01-26T21:50:00;99212.34;;;0.16;100.00
18678;BME280;9469;51.114;13.914;2023-01-26T21:55:06;99214.88;;;0.11;100.00
18678;BME280;9469;51.114;13.914;2023-01-26T22:00:17;99211.69;;;0.21;100.00
18678;BME280;9469;51.114;13.914;2023-01-26T22:05:22;99212.19;;;-0.01;100.00
18678;BME280;9469;51.114;13.914;2023-01-26T22:10:27;99203.22;;;0.07;100.00
18678;BME280;9469;51.114;13.914;2023-01-26T22:15:35;99196.50;;;0.29;100.00
18678;BME280;9469;51.114;13.914;2023-01-26T22:20:43;99190.59;;;0.04;100.00
18678;BME280;9469;51.114;13.914;2023-01-26T22:25:48;99180.44;;;0.26;100.00
18678;BME280;9469;51.114;13.914;2023-01-26T22:31:00;99183.94;;;-0.28;100.00
18678;BME280;9469;51.114;13.914;2023-01-26T22:36:07;99187.56;;;-0.29;100.00
18678;BME280;9469;51.114;13.914;2023-01-26T22:41:17;99178.03;;;-0.06;100.00
18678;BME280;9469;51.114;13.914;2023-01-26T22:46:28;99182.84;;;-0.03;100.00
18678;BME280;9469;51.114;13.914;2023-01-26T22:51:34;99185.09;;;0.24;100.00
18678;BME280;9469;51.114;13.914;2023-01-26T22:56:39;99177.69;;;0.21;100.00
18678;BME280;9469;51.114;13.914;2023-01-26T23:01:47;99182.31;;;0.37;100.00
18678;BME280;9469;51.114;13.914;2023-01-26T23:06:52;99183.91;;;0.08;100.00
18678;BME280;9469;51.114;13.914;2023-01-26T23:11:57;99199.97;;;-0.07;100.00
18678;BME280;9469;51.114;13.914;2023-01-26T23:17:06;99191.22;;;0.18;100.00
18678;BME280;9469;51.114;13.914;2023-01-26T23:22:12;99193.19;;;0.22;100.00
18678;BME280;9469;51.114;13.914;2023-01-26T23:27:18;99178.09;;;0.06;100.00
18678;BME280;9469;51.114;13.914;2023-01-26T23:32:25;99185.72;;;0.37;100.00
18678;BME280;9469;51.114;13.914;2023-01-26T23:37:31;99196.03;;;-0.16;100.00
18678;BME280;9469;51.114;13.914;2023-01-26T23:42:35;99191.41;;;-0.14;100.00
18678;BME280;9469;51.114;13.914;2023-01-26T23:48:04;99188.28;;;-0.22;100.00
18678;BME280;9469;51.114;13.914;2023-01-26T23:53:09;99187.03;;;-0.38;100.00
18678;BME280;9469;51.114;13.914;2023-01-26T23:58:14;99186.03;;;-0.37;100.00
